Glendale, AZ

8:56 PM MST on August 21, 2014 (GMT -0700)
Glendale Municipal | Change Station
CLOSE
Current Station
Airport
Location: Glendale,
Elevation: 1066 ft
Nearby Weather Stations

Elev 1066 ft 33.53 °N, 112.29 °W | Updated 1 hour ago

Light Rain
Light Rain
84 °F
Feels Like 86 °F
N
24
Wind Variable Wind from South
Gusts 32 mph

Today
High -- | Low -- °F
--% Chance of Precip.
Yesterday
High -- | Low -- °F
Precip. -- in
5:55 AM 7:08 PM
Waning Crescent, 10% visible
Pressure 29.96 in
Visibility 20.0 miles
Clouds Few 7500 ft
Mostly Cloudy 10000 ft
Overcast 12000 ft
Heat Index 86 °F
Dew Point 64 °F
Humidity 51%
Rainfall 0.00 in
Snow Depth Not available.
UV 0 out of 12
Pollen 4.20 out of 12
PM2.5 Good
Flu Activity Not available.
METAR KGEU 220247Z 18021G28KT 20SM -RA FEW075 BKN100 OVC120 29/18 A2996

More Conditions Fewer Conditions

Pressure 29.96 in
Visibility 20.0 miles
Clouds Few 7500 ft
Mostly Cloudy 10000 ft
Overcast 12000 ft
Heat Index 86 °F
Dew Point 64 °F
Humidity 51%
Rainfall 0.00 in
Snow Depth Not available.
UV 0 out of 12
Pollen 4.20 out of 12
PM2.5 Good
Flu Activity Not available.
METAR KGEU 220247Z 18021G28KT 20SM -RA FEW075 BKN100 OVC120 29/18 A2996

More Conditions Fewer Conditions

10-Day Weather Forecast

Almanac

Astronomy

Aug. 21, 2014 Rise Set
Actual Time 5:55 AM MST 7:08 PM MST
Civil Twilight 5:29 AM MST 7:34 PM MST
Nautical Twilight 4:58 AM MST 8:04 PM MST
Astronomical Twilight 4:26 AM MST 8:36 PM MST
Moon 2:34 AM MST (8/21) 4:35 PM MST (8/21)
Length of Visible Light 14h 04m
Length of Day
13h 12m
Tomorrow will be 1m 54s shorter.
Waning Crescent, 10% of the Moon is Illuminated
Today
Waning Crescent
Aug 25
New
Sep 2
First Quarter
Sep 8
Full
Sep 15
Last Quarter

Today's Extremes

State Highs State Lows

Community

WunderPhotos

Upload Photos

1,746,127 photos uploaded!

Nearby

Air Quality

  Air Quality AQ Index Pollutant
Yesterday Moderate
OZONE
Yesterday Good
PM10
Current Good
PM2.5
Thursday Good
OZONE
Thursday Good
PM10
Thursday Good
CO
Friday Moderate
OZONE
Friday Good
PM10
Friday Good
CO
Saturday Moderate
OZONE
Saturday Good
PM10
Saturday Good
CO

Snow Depth

Station Depth Elevation
Workman Creek 1 in 6900 ft
Promontory 0 in 7930 ft
Mormon Mountain 0 in 7500 ft
White Horse Lake 0 in 7180 ft
Snowslide Canyon 1 in 9730 ft

Earthquake Activity

City Distance Mag. Time & Date
No recent earthquake activity has been reported nearby.
Minimum magnitude displayed is 2.5.

Coastal Water Temperatures

Place Temperature
No Stations Reporting

Nearby Weather Stations